Time;durP1;ratioP1;P1;durP2;ratioP2;P2;SDS_P1;SDS_P2;PMS_P1;PMS_P2;Temp;Humidity;BMP_temperature;BMP_pressure;BME280_temperature;BME280_humidity;BME280_pressure;Samples;Min_cycle;Max_cycle;Signal;HPM_P1;HPM_P2
2024/03/11 00:02:11;;;;;;;7.70;4.00;;;;;;;;;;5030815;28;20414;-65
2024/03/11 00:04:39;;;;;;;4.78;3.28;;;;;;;;;;5029792;28;20187;-65
2024/03/11 00:07:04;;;;;;;6.13;3.40;;;;;;;;;;5031266;28;20056;-67
2024/03/11 00:09:33;;;;;;;7.22;4.18;;;;;;;;;;5029631;28;20124;-65
2024/03/11 00:12:00;;;;;;;6.63;4.22;;;;;;;;;;5030966;28;20044;-66
2024/03/11 00:14:28;;;;;;;8.15;4.20;;;;;;;;;;5030843;28;20067;-66
2024/03/11 00:16:58;;;;;;;5.32;3.60;;;;;;;;;;5030218;28;20029;-66
2024/03/11 00:19:23;;;;;;;8.18;4.25;;;;;;;;;;5030930;28;20064;-67
2024/03/11 00:21:56;;;;;;;8.20;3.78;;;;;;;;;;5031055;28;20042;-66
2024/03/11 00:24:22;;;;;;;6.53;4.10;;;;;;;;;;5031040;28;20038;-66
2024/03/11 00:26:48;;;;;;;4.18;3.17;;;;;;;;;;5029914;28;20152;-66
2024/03/11 00:29:14;;;;;;;6.05;4.10;;;;;;;;;;5031066;28;20073;-66
2024/03/11 00:31:39;;;;;;;6.85;3.75;;;;;;;;;;5029859;28;20038;-66
2024/03/11 00:34:05;;;;;;;5.68;3.45;;;;;;;;;;5029295;28;20404;-66
2024/03/11 00:36:31;;;;;;;6.38;3.80;;;;;;;;;;5030910;28;20120;-64
2024/03/11 00:38:57;;;;;;;6.10;3.65;;;;;;;;;;5029421;28;20482;-65
2024/03/11 00:41:23;;;;;;;7.05;4.13;;;;;;;;;;5029613;28;20087;-66
2024/03/11 00:43:50;;;;;;;9.13;3.90;;;;;;;;;;5029605;28;20037;-64
2024/03/11 00:46:16;;;;;;;7.30;3.45;;;;;;;;;;5030110;28;20421;-64
2024/03/11 00:48:43;;;;;;;5.28;3.63;;;;;;;;;;5029318;28;20033;-66
2024/03/11 00:51:09;;;;;;;6.20;3.55;;;;;;;;;;5030811;28;20120;-67
2024/03/11 00:53:35;;;;;;;7.38;4.30;;;;;;;;;;5029329;28;20557;-65
2024/03/11 00:56:01;;;;;;;9.38;4.03;;;;;;;;;;5029519;28;20069;-65
2024/03/11 00:58:28;;;;;;;6.65;3.83;;;;;;;;;;5030392;28;20434;-64
2024/03/11 01:00:55;;;;;;;6.03;3.35;;;;;;;;;;5030740;28;20041;-66
2024/03/11 01:03:22;;;;;;;10.63;3.78;;;;;;;;;;5062511;28;20048;-65
2024/03/11 01:05:49;;;;;;;6.18;4.13;;;;;;;;;;5029163;28;20033;-65
2024/03/11 01:08:16;;;;;;;8.68;3.72;;;;;;;;;;5029136;28;20491;-66
2024/03/11 01:10:41;;;;;;;6.18;3.15;;;;;;;;;;5031499;28;20095;-65
2024/03/11 01:13:07;;;;;;;5.78;3.15;;;;;;;;;;5033891;28;20479;-64
2024/03/11 01:15:33;;;;;;;6.38;3.70;;;;;;;;;;5034196;28;20095;-67
2024/03/11 01:17:58;;;;;;;5.55;3.95;;;;;;;;;;5034010;28;20045;-66
2024/03/11 01:20:24;;;;;;;6.38;3.72;;;;;;;;;;5032703;28;20458;-66
2024/03/11 01:22:51;;;;;;;7.40;3.90;;;;;;;;;;5034127;28;20068;-65
2024/03/11 01:25:20;;;;;;;9.00;3.70;;;;;;;;;;5032769;28;20503;-66
2024/03/11 01:27:46;;;;;;;6.95;3.97;;;;;;;;;;5033923;28;20491;-65
2024/03/11 01:30:11;;;;;;;7.13;4.13;;;;;;;;;;5034127;28;20083;-64
2024/03/11 01:32:39;;;;;;;5.45;3.50;;;;;;;;;;5032482;28;20045;-65
2024/03/11 01:35:06;;;;;;;5.18;4.03;;;;;;;;;;5016180;28;20064;-66
2024/03/11 01:37:31;;;;;;;6.90;3.45;;;;;;;;;;5032082;28;20099;-65
2024/03/11 01:39:57;;;;;;;7.30;3.97;;;;;;;;;;5032757;28;20124;-64
2024/03/11 01:42:23;;;;;;;5.55;3.78;;;;;;;;;;5016019;28;20045;-66
2024/03/11 01:44:50;;;;;;;6.63;3.92;;;;;;;;;;5034131;28;20037;-66
2024/03/11 01:47:17;;;;;;;5.28;3.60;;;;;;;;;;5033724;28;20490;-66
2024/03/11 01:49:44;;;;;;;5.40;3.38;;;;;;;;;;5034053;28;20103;-67
2024/03/11 01:52:14;;;;;;;7.80;4.00;;;;;;;;;;5033932;28;20037;-66
2024/03/11 01:54:40;;;;;;;6.30;3.95;;;;;;;;;;5032331;28;20033;-65
2024/03/11 01:57:06;;;;;;;10.73;4.10;;;;;;;;;;5033765;28;20076;-66
2024/03/11 01:59:35;;;;;;;7.80;3.35;;;;;;;;;;5032333;28;20061;-66
2024/03/11 02:02:03;;;;;;;8.13;4.10;;;;;;;;;;5033700;28;20065;-66
2024/03/11 02:04:30;;;;;;;15.15;4.57;;;;;;;;;;5033800;28;20061;-66
2024/03/11 02:06:55;;;;;;;10.10;4.35;;;;;;;;;;5031943;28;20041;-66
2024/03/11 02:09:21;;;;;;;8.30;3.72;;;;;;;;;;5033200;28;20057;-65
2024/03/11 02:11:47;;;;;;;7.07;4.30;;;;;;;;;;5033043;28;20404;-67
2024/03/11 02:14:13;;;;;;;11.73;4.20;;;;;;;;;;5031857;28;20088;-65
2024/03/11 02:16:41;;;;;;;7.28;3.75;;;;;;;;;;5033379;28;20045;-66
2024/03/11 02:19:26;;;;;;;8.98;4.18;;;;;;;;;;5032139;28;20067;-66
2024/03/11 02:21:52;;;;;;;7.10;4.47;;;;;;;;;;5032447;28;20133;-66
2024/03/11 02:24:18;;;;;;;6.47;3.90;;;;;;;;;;5032029;28;20060;-65
2024/03/11 02:26:48;;;;;;;5.40;3.65;;;;;;;;;;5032454;28;20554;-64
2024/03/11 02:29:20;;;;;;;6.35;3.88;;;;;;;;;;4998935;28;20068;-65
2024/03/11 02:31:47;;;;;;;6.35;3.60;;;;;;;;;;5031665;28;20037;-65
2024/03/11 02:34:13;;;;;;;8.45;3.65;;;;;;;;;;5032894;28;20114;-66
2024/03/11 02:36:39;;;;;;;7.20;4.15;;;;;;;;;;5031621;28;20044;-66
2024/03/11 02:39:05;;;;;;;5.80;3.78;;;;;;;;;;5032532;28;20041;-65
2024/03/11 02:41:32;;;;;;;10.73;4.10;;;;;;;;;;5031190;28;20072;-67
2024/03/11 02:43:58;;;;;;;8.85;4.40;;;;;;;;;;5032929;28;20059;-65
2024/03/11 02:46:24;;;;;;;9.18;4.15;;;;;;;;;;5031237;28;20450;-66
2024/03/11 02:48:49;;;;;;;8.63;3.95;;;;;;;;;;5032663;28;20593;-65
2024/03/11 02:51:15;;;;;;;6.82;4.07;;;;;;;;;;5031269;28;20033;-66
2024/03/11 02:53:40;;;;;;;8.88;4.25;;;;;;;;;;5031076;28;20399;-65
2024/03/11 02:56:07;;;;;;;8.98;4.72;;;;;;;;;;5032069;28;20048;-67
2024/03/11 02:58:34;;;;;;;7.80;4.20;;;;;;;;;;5032483;28;20045;-65
2024/03/11 03:01:01;;;;;;;8.57;4.35;;;;;;;;;;5032692;28;20080;-66
2024/03/11 03:03:27;;;;;;;10.00;5.10;;;;;;;;;;5032478;28;20048;-66
2024/03/11 03:05:52;;;;;;;7.65;3.92;;;;;;;;;;5032176;28;20041;-66
2024/03/11 03:08:18;;;;;;;9.18;4.78;;;;;;;;;;5032131;28;20060;-64
2024/03/11 03:10:44;;;;;;;7.05;4.60;;;;;;;;;;5032216;28;20048;-66
2024/03/11 03:13:09;;;;;;;9.35;5.00;;;;;;;;;;5032051;28;20044;-65
2024/03/11 03:15:36;;;;;;;7.35;4.43;;;;;;;;;;5031869;28;20418;-65
2024/03/11 03:18:01;;;;;;;8.38;4.80;;;;;;;;;;5031905;28;20680;-66
2024/03/11 03:20:27;;;;;;;7.47;4.68;;;;;;;;;;5032072;28;20129;-65
2024/03/11 03:22:52;;;;;;;7.50;4.43;;;;;;;;;;5032095;28;20041;-65
2024/03/11 03:25:18;;;;;;;7.75;4.47;;;;;;;;;;5032367;28;20119;-64
2024/03/11 03:27:44;;;;;;;7.35;4.03;;;;;;;;;;5032090;28;20440;-65
2024/03/11 03:30:09;;;;;;;6.43;4.18;;;;;;;;;;5032121;28;20387;-65
2024/03/11 03:32:35;;;;;;;7.95;4.47;;;;;;;;;;5031813;28;20037;-64
2024/03/11 03:35:01;;;;;;;7.88;3.90;;;;;;;;;;5031632;28;20115;-64
2024/03/11 03:37:29;;;;;;;8.27;4.40;;;;;;;;;;5063019;28;20399;-64
2024/03/11 03:39:55;;;;;;;6.63;3.67;;;;;;;;;;5032086;28;20041;-65
2024/03/11 03:42:22;;;;;;;7.22;4.03;;;;;;;;;;5030689;28;20116;-69
2024/03/11 03:44:47;;;;;;;8.32;4.10;;;;;;;;;;5030472;28;20033;-62
2024/03/11 03:47:14;;;;;;;7.35;4.00;;;;;;;;;;4997696;28;20038;-64
2024/03/11 03:49:39;;;;;;;9.45;4.55;;;;;;;;;;5030639;28;20037;-63
2024/03/11 03:52:05;;;;;;;7.97;3.65;;;;;;;;;;5031724;28;20112;-65
2024/03/11 03:54:30;;;;;;;8.85;3.92;;;;;;;;;;5030134;28;20040;-66
2024/03/11 03:56:56;;;;;;;9.98;4.28;;;;;;;;;;5030125;28;20045;-61
2024/03/11 03:59:22;;;;;;;7.13;4.10;;;;;;;;;;5031414;28;20095;-61
2024/03/11 04:01:48;;;;;;;6.55;3.72;;;;;;;;;;5031586;28;20044;-62
2024/03/11 04:04:13;;;;;;;6.55;3.60;;;;;;;;;;5030231;28;20037;-64
2024/03/11 04:06:39;;;;;;;13.00;4.55;;;;;;;;;;5013559;28;20523;-66
2024/03/11 04:09:09;;;;;;;8.13;3.90;;;;;;;;;;5013575;28;20104;-63
2024/03/11 04:11:35;;;;;;;6.77;4.10;;;;;;;;;;5031139;28;20049;-66
2024/03/11 04:14:01;;;;;;;5.25;4.00;;;;;;;;;;5031242;28;20379;-63
2024/03/11 04:16:28;;;;;;;8.05;4.85;;;;;;;;;;5029770;28;20037;-66
2024/03/11 04:18:54;;;;;;;5.35;3.75;;;;;;;;;;5029481;28;20140;-64
2024/03/11 04:21:21;;;;;;;9.00;3.97;;;;;;;;;;5030134;28;20419;-66
2024/03/11 04:23:50;;;;;;;8.55;3.90;;;;;;;;;;5030142;28;20050;-65
2024/03/11 04:26:16;;;;;;;6.40;4.10;;;;;;;;;;5031077;28;20033;-65
2024/03/11 04:28:43;;;;;;;7.15;3.65;;;;;;;;;;5030148;28;20065;-65
2024/03/11 04:31:09;;;;;;;10.00;3.90;;;;;;;;;;5031087;28;20041;-67
2024/03/11 04:33:34;;;;;;;6.28;4.05;;;;;;;;;;5031146;28;20033;-66
2024/03/11 04:36:00;;;;;;;8.35;3.78;;;;;;;;;;5035259;28;20060;-66
2024/03/11 04:38:26;;;;;;;8.75;5.25;;;;;;;;;;5031148;28;20061;-65
2024/03/11 04:40:52;;;;;;;8.10;4.60;;;;;;;;;;5031274;28;20387;-67
2024/03/11 04:43:18;;;;;;;7.40;4.50;;;;;;;;;;5030907;28;20033;-66
2024/03/11 04:45:44;;;;;;;7.03;4.88;;;;;;;;;;5033440;28;20042;-65
2024/03/11 04:48:13;;;;;;;11.45;4.95;;;;;;;;;;5033392;28;20029;-65
2024/03/11 04:50:40;;;;;;;7.78;4.53;;;;;;;;;;5035023;28;20083;-66
2024/03/11 04:53:06;;;;;;;5.78;4.00;;;;;;;;;;5034773;28;20098;-65
2024/03/11 04:55:32;;;;;;;7.60;5.03;;;;;;;;;;5034829;28;20037;-67
2024/03/11 04:57:58;;;;;;;6.40;4.05;;;;;;;;;;5034440;28;20140;-66
2024/03/11 05:00:28;;;;;;;9.68;4.20;;;;;;;;;;5016955;28;20172;-65
2024/03/11 05:02:58;;;;;;;10.37;5.37;;;;;;;;;;5033564;28;20510;-63
2024/03/11 05:05:25;;;;;;;6.47;4.25;;;;;;;;;;5033512;28;20071;-65
2024/03/11 05:07:51;;;;;;;7.68;4.88;;;;;;;;;;5034665;28;20180;-64
2024/03/11 05:10:17;;;;;;;9.60;4.45;;;;;;;;;;5034911;28;20050;-66
2024/03/11 05:12:44;;;;;;;8.30;4.60;;;;;;;;;;5034196;28;20393;-68
2024/03/11 05:15:10;;;;;;;11.18;5.40;;;;;;;;;;5032966;28;20049;-66
2024/03/11 05:17:36;;;;;;;8.27;5.00;;;;;;;;;;5033115;28;20134;-67
2024/03/11 05:20:06;;;;;;;7.82;4.57;;;;;;;;;;5034702;28;20458;-68
2024/03/11 05:22:32;;;;;;;8.90;4.97;;;;;;;;;;5034723;28;20065;-67
2024/03/11 05:24:58;;;;;;;8.27;5.00;;;;;;;;;;5033126;28;20128;-67
2024/03/11 05:27:24;;;;;;;7.43;4.47;;;;;;;;;;5034019;28;20120;-65
2024/03/11 05:29:49;;;;;;;7.90;4.53;;;;;;;;;;5032845;28;20033;-66
2024/03/11 05:32:15;;;;;;;9.25;4.55;;;;;;;;;;5032708;28;20033;-68
2024/03/11 05:34:41;;;;;;;8.32;4.82;;;;;;;;;;5033860;28;20061;-66
2024/03/11 05:37:06;;;;;;;9.07;5.05;;;;;;;;;;5034086;28;20049;-66
2024/03/11 05:39:33;;;;;;;7.72;4.65;;;;;;;;;;5034474;28;20521;-66
2024/03/11 05:41:59;;;;;;;6.85;4.78;;;;;;;;;;5033344;28;20530;-66
2024/03/11 05:44:25;;;;;;;10.07;4.78;;;;;;;;;;5032564;28;20052;-66
2024/03/11 05:46:50;;;;;;;10.18;4.40;;;;;;;;;;5033905;28;20069;-67
2024/03/11 05:49:16;;;;;;;6.88;4.57;;;;;;;;;;5015725;28;20037;-65
2024/03/11 05:51:42;;;;;;;10.30;4.85;;;;;;;;;;5033866;28;20041;-65
2024/03/11 05:54:17;;;;;;;8.20;4.80;;;;;;;;;;5033864;28;20064;-65
2024/03/11 05:56:59;;;;;;;9.77;4.97;;;;;;;;;;5031876;28;20048;-64
2024/03/11 05:59:25;;;;;;;8.60;4.95;;;;;;;;;;5032354;28;20132;-62
2024/03/11 06:01:51;;;;;;;13.05;5.15;;;;;;;;;;5033532;28;20064;-65
2024/03/11 06:04:17;;;;;;;9.35;4.75;;;;;;;;;;5031989;28;20034;-64
2024/03/11 06:06:47;;;;;;;7.85;4.03;;;;;;;;;;5033500;28;20148;-64
2024/03/11 06:09:14;;;;;;;8.65;4.78;;;;;;;;;;5033487;28;20033;-64
2024/03/11 06:11:43;;;;;;;7.30;4.68;;;;;;;;;;5033473;28;20045;-63
2024/03/11 06:14:15;;;;;;;7.45;4.20;;;;;;;;;;5033383;28;20540;-63
2024/03/11 06:16:44;;;;;;;10.73;4.22;;;;;;;;;;5033311;28;20069;-63
2024/03/11 06:19:10;;;;;;;6.28;4.10;;;;;;;;;;5031954;28;20042;-64
2024/03/11 06:21:37;;;;;;;9.48;3.70;;;;;;;;;;5031712;28;20037;-63
2024/03/11 06:24:05;;;;;;;8.77;4.10;;;;;;;;;;5033295;28;20033;-64
2024/03/11 06:26:34;;;;;;;6.70;3.60;;;;;;;;;;5033103;28;20420;-63
2024/03/11 06:29:01;;;;;;;6.32;4.03;;;;;;;;;;5033174;28;20064;-63
2024/03/11 06:31:29;;;;;;;6.72;3.88;;;;;;;;;;5033179;28;20220;-65
2024/03/11 06:33:55;;;;;;;7.20;3.88;;;;;;;;;;5033001;28;20150;-61
2024/03/11 06:36:21;;;;;;;5.93;3.80;;;;;;;;;;5031597;28;20148;-66
2024/03/11 06:38:48;;;;;;;6.70;4.03;;;;;;;;;;5031520;28;20046;-67
2024/03/11 06:41:17;;;;;;;5.85;4.07;;;;;;;;;;5031307;28;20041;-66
2024/03/11 06:43:44;;;;;;;7.40;3.45;;;;;;;;;;5032681;28;20463;-63
2024/03/11 06:46:11;;;;;;;5.50;3.35;;;;;;;;;;5031689;28;20037;-63
2024/03/11 06:48:36;;;;;;;6.60;4.20;;;;;;;;;;5032758;28;20038;-62
2024/03/11 06:51:04;;;;;;;5.72;4.10;;;;;;;;;;5032474;28;20106;-65
2024/03/11 06:53:30;;;;;;;6.65;4.25;;;;;;;;;;5032618;28;20132;-63
2024/03/11 06:55:55;;;;;;;8.57;4.03;;;;;;;;;;5031505;28;20069;-69
2024/03/11 06:58:22;;;;;;;7.65;4.70;;;;;;;;;;5032506;28;20053;-66
2024/03/11 07:00:47;;;;;;;6.07;3.90;;;;;;;;;;5032583;28;20072;-64
2024/03/11 07:03:15;;;;;;;7.35;4.15;;;;;;;;;;5030915;28;20057;-66
2024/03/11 07:05:40;;;;;;;6.22;4.53;;;;;;;;;;5030799;28;20029;-65
2024/03/11 07:08:06;;;;;;;8.57;4.60;;;;;;;;;;5030547;28;20029;-66
2024/03/11 07:10:32;;;;;;;6.50;4.40;;;;;;;;;;5031678;28;20414;-66
2024/03/11 07:12:58;;;;;;;8.02;4.00;;;;;;;;;;5030375;28;20120;-63
2024/03/11 07:15:25;;;;;;;11.35;4.72;;;;;;;;;;5031944;28;20065;-62
2024/03/11 07:17:50;;;;;;;8.32;4.82;;;;;;;;;;5029589;28;20038;-62
2024/03/11 07:20:17;;;;;;;9.50;4.40;;;;;;;;;;5030366;28;20041;-63
2024/03/11 07:22:43;;;;;;;8.63;4.35;;;;;;;;;;5031701;28;20045;-66
2024/03/11 07:25:15;;;;;;;7.80;4.13;;;;;;;;;;5030878;28;20402;-63
2024/03/11 07:27:47;;;;;;;7.05;4.40;;;;;;;;;;5032063;28;21453;-65
2024/03/11 07:30:14;;;;;;;9.27;4.23;;;;;;;;;;5032304;28;20045;-68
2024/03/11 07:32:42;;;;;;;7.40;4.60;;;;;;;;;;5031797;28;20277;-64
2024/03/11 07:35:07;;;;;;;8.65;4.03;;;;;;;;;;5030272;28;20057;-64
2024/03/11 07:37:36;;;;;;;6.78;4.20;;;;;;;;;;5030601;28;20040;-63
2024/03/11 07:40:06;;;;;;;8.77;4.55;;;;;;;;;;5032037;28;20419;-64
2024/03/11 07:42:32;;;;;;;5.13;3.22;;;;;;;;;;5030228;28;20060;-63
2024/03/11 07:44:57;;;;;;;7.35;3.65;;;;;;;;;;5031951;28;20048;-65
2024/03/11 07:47:23;;;;;;;5.90;2.45;;;;;;;;;;5031702;28;20045;-66
2024/03/11 07:49:49;;;;;;;4.03;2.72;;;;;;;;;;5030105;28;20115;-66
2024/03/11 07:52:14;;;;;;;5.97;2.92;;;;;;;;;;5031386;28;20511;-68
2024/03/11 07:54:40;;;;;;;4.50;2.90;;;;;;;;;;5030427;28;20060;-69
2024/03/11 07:57:07;;;;;;;4.32;2.70;;;;;;;;;;5030162;28;20036;-72
2024/03/11 07:59:33;;;;;;;4.28;2.78;;;;;;;;;;5030222;28;20057;-64
2024/03/11 08:01:58;;;;;;;7.82;2.90;;;;;;;;;;5029951;28;20427;-68
2024/03/11 08:04:24;;;;;;;4.93;3.13;;;;;;;;;;5031553;28;20120;-63
2024/03/11 08:06:50;;;;;;;6.35;3.25;;;;;;;;;;5030202;28;20037;-66
2024/03/11 08:09:16;;;;;;;6.35;3.25;;;;;;;;;;5031302;28;20041;-65
2024/03/11 08:11:42;;;;;;;5.15;3.00;;;;;;;;;;5031410;28;20171;-63
2024/03/11 08:14:08;;;;;;;3.50;2.70;;;;;;;;;;5031201;28;20128;-64
2024/03/11 08:16:33;;;;;;;4.43;2.95;;;;;;;;;;5030976;28;20042;-67
2024/03/11 08:18:59;;;;;;;4.65;3.20;;;;;;;;;;5013369;28;20140;-64
2024/03/11 08:21:25;;;;;;;4.97;2.95;;;;;;;;;;5033684;28;20065;-66
2024/03/11 08:23:50;;;;;;;9.45;3.08;;;;;;;;;;5035165;28;20045;-63
2024/03/11 08:26:17;;;;;;;5.22;3.35;;;;;;;;;;5034845;28;20064;-64
2024/03/11 08:28:43;;;;;;;5.85;2.90;;;;;;;;;;5035074;28;20034;-65
2024/03/11 08:31:09;;;;;;;10.57;3.45;;;;;;;;;;5035164;28;20048;-65
2024/03/11 08:33:37;;;;;;;4.50;3.15;;;;;;;;;;5034975;28;20430;-64
2024/03/11 08:36:06;;;;;;;6.55;3.40;;;;;;;;;;5034710;28;20053;-65
2024/03/11 08:38:33;;;;;;;8.30;3.42;;;;;;;;;;5033610;28;20050;-65
2024/03/11 08:40:59;;;;;;;5.78;3.10;;;;;;;;;;5035000;28;20060;-64
2024/03/11 08:43:26;;;;;;;4.65;3.05;;;;;;;;;;5033680;28;20045;-64
2024/03/11 08:45:51;;;;;;;4.13;2.83;;;;;;;;;;5033681;28;20041;-66
2024/03/11 08:48:17;;;;;;;6.07;3.83;;;;;;;;;;5033627;28;20491;-65
2024/03/11 08:50:43;;;;;;;5.82;3.42;;;;;;;;;;5034802;28;20069;-67
2024/03/11 08:53:08;;;;;;;5.65;3.33;;;;;;;;;;5034547;28;20076;-64
2024/03/11 08:55:34;;;;;;;5.95;3.78;;;;;;;;;;5016843;28;20145;-64
2024/03/11 08:58:00;;;;;;;5.70;3.30;;;;;;;;;;5034767;28;20039;-63
2024/03/11 09:00:28;;;;;;;5.95;3.50;;;;;;;;;;5034712;28;20167;-62
2024/03/11 09:02:54;;;;;;;8.38;4.00;;;;;;;;;;5034482;28;20045;-63
2024/03/11 09:05:22;;;;;;;7.68;4.03;;;;;;;;;;5034568;28;20170;-64
2024/03/11 09:07:51;;;;;;;6.10;3.70;;;;;;;;;;5016140;28;20038;-64
2024/03/11 09:10:17;;;;;;;5.43;3.90;;;;;;;;;;5034365;28;20021;-71
2024/03/11 09:12:44;;;;;;;6.03;3.50;;;;;;;;;;5034106;28;20368;-64
2024/03/11 09:15:16;;;;;;;6.28;3.50;;;;;;;;;;5034599;28;20041;-67
2024/03/11 09:17:53;;;;;;;10.10;5.50;;;;;;;;;;5033060;28;20034;-66
2024/03/11 09:20:28;;;;;;;6.93;3.97;;;;;;;;;;5013282;28;20041;-65
2024/03/11 09:22:57;;;;;;;6.32;3.97;;;;;;;;;;5022714;28;20056;-64
2024/03/11 09:25:24;;;;;;;6.53;4.22;;;;;;;;;;5034201;28;20090;-68
2024/03/11 09:28:00;;;;;;;7.47;4.30;;;;;;;;;;5032802;28;20219;-64
2024/03/11 09:30:36;;;;;;;5.15;3.90;;;;;;;;;;5034317;28;20283;-64
2024/03/11 09:33:02;;;;;;;8.07;3.83;;;;;;;;;;5032252;28;20068;-67
2024/03/11 09:35:28;;;;;;;4.65;3.40;;;;;;;;;;5032143;28;20120;-65
2024/03/11 09:37:54;;;;;;;4.50;3.60;;;;;;;;;;5034899;28;20030;-66
2024/03/11 09:40:26;;;;;;;5.70;3.33;;;;;;;;;;5032637;28;20045;-65
2024/03/11 09:42:56;;;;;;;4.97;3.33;;;;;;;;;;5032812;28;20044;-65
2024/03/11 09:45:23;;;;;;;6.80;4.07;;;;;;;;;;5032655;28;20033;-65
2024/03/11 09:47:52;;;;;;;5.22;3.22;;;;;;;;;;5033764;28;20377;-67
2024/03/11 09:50:26;;;;;;;6.35;3.63;;;;;;;;;;5034053;28;20451;-64
2024/03/11 09:52:57;;;;;;;5.47;3.72;;;;;;;;;;5033808;28;20041;-63
2024/03/11 09:55:24;;;;;;;5.30;3.47;;;;;;;;;;5033656;28;20084;-62
2024/03/11 09:57:50;;;;;;;5.68;3.30;;;;;;;;;;5033546;28;20061;-64
2024/03/11 10:00:23;;;;;;;6.45;3.72;;;;;;;;;;5032364;28;20033;-62
2024/03/11 10:02:52;;;;;;;8.88;3.53;;;;;;;;;;5033523;28;20064;-63
2024/03/11 10:05:19;;;;;;;5.18;3.70;;;;;;;;;;5033841;28;20450;-63
2024/03/11 10:07:45;;;;;;;4.40;3.45;;;;;;;;;;5015906;28;20606;-63
2024/03/11 10:10:12;;;;;;;7.47;3.90;;;;;;;;;;5033305;28;20128;-62
2024/03/11 10:12:53;;;;;;;5.93;3.92;;;;;;;;;;5033498;28;20037;-61
2024/03/11 10:15:27;;;;;;;7.32;3.60;;;;;;;;;;5033700;28;20494;-62
2024/03/11 10:17:54;;;;;;;5.38;2.80;;;;;;;;;;5033239;28;20072;-62
2024/03/11 10:20:21;;;;;;;5.97;3.60;;;;;;;;;;5031988;28;20501;-62
2024/03/11 10:22:47;;;;;;;8.07;3.05;;;;;;;;;;5031968;28;20064;-66
2024/03/11 10:25:22;;;;;;;4.68;2.85;;;;;;;;;;5036385;28;20037;-64
2024/03/11 10:28:33;;;;;;;4.53;2.97;;;;;;;;;;5033268;28;20529;-67
2024/03/11 10:30:59;;;;;;;4.50;2.97;;;;;;;;;;5015020;28;20057;-65
2024/03/11 10:33:30;;;;;;;5.05;2.88;;;;;;;;;;5015195;28;20033;-66
2024/03/11 10:35:56;;;;;;;;;;;;;;;;;;5033159;28;20458;-65
2024/03/11 10:38:24;;;;;;;7.80;3.17;;;;;;;;;;5032553;28;20371;-66
2024/03/11 10:40:49;;;;;;;4.47;2.90;;;;;;;;;;5031363;28;20534;-67
2024/03/11 10:43:23;;;;;;;6.47;2.92;;;;;;;;;;5037326;28;20037;-63
2024/03/11 10:45:50;;;;;;;3.97;2.83;;;;;;;;;;5031439;28;20308;-66
2024/03/11 10:48:15;;;;;;;3.90;3.08;;;;;;;;;;5030809;28;20079;-66
2024/03/11 10:50:41;;;;;;;4.47;2.88;;;;;;;;;;5031239;28;20037;-67
2024/03/11 10:53:12;;;;;;;3.20;2.60;;;;;;;;;;5030961;28;20041;-66
2024/03/11 10:55:42;;;;;;;5.03;2.83;;;;;;;;;;5031493;28;20119;-66
2024/03/11 10:58:12;;;;;;;3.80;2.67;;;;;;;;;;5014376;28;20422;-65
2024/03/11 11:00:40;;;;;;;4.10;2.60;;;;;;;;;;5014004;28;20083;-64
2024/03/11 11:03:12;;;;;;;5.53;3.03;;;;;;;;;;5030896;28;20033;-64
2024/03/11 11:05:47;;;;;;;3.53;2.63;;;;;;;;;;5014623;28;20033;-66
2024/03/11 11:08:12;;;;;;;4.05;2.67;;;;;;;;;;5030771;28;20049;-66
2024/03/11 11:10:41;;;;;;;4.25;2.80;;;;;;;;;;5032029;28;20034;-66
2024/03/11 11:13:06;;;;;;;3.60;2.33;;;;;;;;;;5031793;28;20044;-64
2024/03/11 11:15:35;;;;;;;4.82;2.45;;;;;;;;;;5014212;28;20041;-67
2024/03/11 11:18:13;;;;;;;4.07;2.50;;;;;;;;;;5030965;28;20044;-67
2024/03/11 11:20:47;;;;;;;5.53;2.60;;;;;;;;;;5030936;28;20042;-63
2024/03/11 11:23:22;;;;;;;6.07;2.75;;;;;;;;;;4997756;28;20030;-64
2024/03/11 11:25:49;;;;;;;6.32;2.78;;;;;;;;;;5030780;28;20076;-66
2024/03/11 11:28:25;;;;;;;3.75;2.50;;;;;;;;;;5014353;28;20063;-65
2024/03/11 11:31:08;;;;;;;4.15;2.50;;;;;;;;;;5032275;28;20350;-66
2024/03/11 11:33:53;;;;;;;4.00;2.60;;;;;;;;;;5030468;28;20086;-68
2024/03/11 11:36:39;;;;;;;4.40;2.65;;;;;;;;;;5013905;28;20061;-66
2024/03/11 11:39:14;;;;;;;6.05;3.13;;;;;;;;;;5031634;28;20053;-65
2024/03/11 11:41:41;;;;;;;3.22;2.22;;;;;;;;;;5032063;28;20045;-65
2024/03/11 11:44:07;;;;;;;4.05;2.47;;;;;;;;;;5030425;28;20565;-66
2024/03/11 11:46:43;;;;;;;4.10;2.38;;;;;;;;;;5031623;28;20049;-63
2024/03/11 11:49:16;;;;;;;3.17;2.60;;;;;;;;;;5031680;28;20120;-63
2024/03/11 11:51:44;;;;;;;3.85;2.60;;;;;;;;;;5031580;28;20510;-65
2024/03/11 11:54:34;;;;;;;4.45;2.63;;;;;;;;;;5031627;28;20036;-66
2024/03/11 11:57:17;;;;;;;4.32;2.30;;;;;;;;;;5030179;28;20096;-65
2024/03/11 11:59:43;;;;;;;3.38;2.50;;;;;;;;;;5030018;28;20416;-66
2024/03/11 12:02:21;;;;;;;3.13;1.92;;;;;;;;;;5031501;28;20042;-65
2024/03/11 12:04:50;;;;;;;3.50;2.28;;;;;;;;;;5031559;28;20060;-63
2024/03/11 12:07:22;;;;;;;3.97;2.60;;;;;;;;;;5030029;28;20419;-64
2024/03/11 12:09:50;;;;;;;4.10;2.55;;;;;;;;;;5032412;28;20041;-63
2024/03/11 12:12:30;;;;;;;3.50;2.70;;;;;;;;;;5034755;28;20065;-64
2024/03/11 12:15:04;;;;;;;4.43;2.57;;;;;;;;;;5030994;28;20034;-65
2024/03/11 12:17:33;;;;;;;6.40;3.05;;;;;;;;;;4997490;28;20388;-67
2024/03/11 12:22:47;;;;;;;5.38;3.00;;;;;;;;;;5029829;28;20037;-66
2024/03/11 12:25:15;;;;;;;6.78;3.03;;;;;;;;;;5031701;28;20029;-66
2024/03/11 12:27:51;;;;;;;4.32;2.70;;;;;;;;;;5030044;28;20049;-65
2024/03/11 12:30:18;;;;;;;2.88;1.95;;;;;;;;;;5013745;28;20095;-65
2024/03/11 12:32:57;;;;;;;4.55;2.42;;;;;;;;;;5012480;28;20045;-66
2024/03/11 12:35:28;;;;;;;3.70;2.58;;;;;;;;;;5031094;28;20060;-65
2024/03/11 12:37:54;;;;;;;4.30;3.03;;;;;;;;;;5013347;28;20567;-64
2024/03/11 12:40:20;;;;;;;5.45;3.40;;;;;;;;;;5029954;28;20407;-66
2024/03/11 12:42:54;;;;;;;5.57;3.88;;;;;;;;;;5031343;28;20045;-68
2024/03/11 12:45:47;;;;;;;3.78;2.75;;;;;;;;;;5024514;28;20025;-66
2024/03/11 12:48:13;;;;;;;5.38;2.75;;;;;;;;;;5027005;28;20049;-65
2024/03/11 12:50:42;;;;;;;3.13;2.28;;;;;;;;;;5031063;28;20087;-65
2024/03/11 12:53:18;;;;;;;7.88;4.25;;;;;;;;;;5030847;28;20061;-65
2024/03/11 12:55:44;;;;;;;5.47;3.08;;;;;;;;;;5030798;28;20045;-67
2024/03/11 12:58:15;;;;;;;6.68;3.20;;;;;;;;;;5012679;28;20045;-66
2024/03/11 13:00:41;;;;;;;5.65;2.88;;;;;;;;;;5012865;28;20110;-67
2024/03/11 13:03:13;;;;;;;6.35;2.70;;;;;;;;;;5026981;28;20621;-65
2024/03/11 13:05:51;;;;;;;4.50;2.42;;;;;;;;;;5011531;28;20507;-65
2024/03/11 13:08:17;;;;;;;4.80;2.67;;;;;;;;;;5012416;28;20064;-64
2024/03/11 13:10:43;;;;;;;3.10;2.35;;;;;;;;;;5013598;28;20352;-66
2024/03/11 13:13:16;;;;;;;4.93;2.85;;;;;;;;;;5014454;28;20452;-68
2024/03/11 13:15:42;;;;;;;4.05;2.65;;;;;;;;;;5013719;28;20482;-66
2024/03/11 13:18:08;;;;;;;4.40;3.10;;;;;;;;;;5012653;28;20050;-66
2024/03/11 13:20:37;;;;;;;5.38;3.03;;;;;;;;;;5031560;28;20045;-67
2024/03/11 13:23:08;;;;;;;3.97;2.55;;;;;;;;;;5033600;28;20526;-67
2024/03/11 13:25:34;;;;;;;;;;;;;;;;;;5034106;28;20037;-66
2024/03/11 13:28:00;;;;;;;3.65;2.22;;;;;;;;;;5032480;28;19920;-67
2024/03/11 13:30:26;;;;;;;4.78;2.80;;;;;;;;;;5031820;28;20029;-66
2024/03/11 13:32:56;;;;;;;5.07;2.55;;;;;;;;;;5033857;28;20038;-65
2024/03/11 13:35:24;;;;;;;4.38;2.80;;;;;;;;;;5032506;28;20392;-67
2024/03/11 13:37:50;;;;;;;4.55;2.67;;;;;;;;;;5032523;28;20048;-67
2024/03/11 13:40:16;;;;;;;4.03;2.80;;;;;;;;;;5033386;28;20033;-66
2024/03/11 13:42:41;;;;;;;5.78;2.50;;;;;;;;;;5033555;28;20091;-66
2024/03/11 13:45:07;;;;;;;4.30;2.53;;;;;;;;;;5032048;28;20045;-65
2024/03/11 13:47:33;;;;;;;4.80;2.53;;;;;;;;;;5033198;28;20045;-64
2024/03/11 13:49:58;;;;;;;4.65;2.80;;;;;;;;;;5033796;28;20407;-64
2024/03/11 13:52:25;;;;;;;3.45;2.65;;;;;;;;;;5033434;28;20521;-67
2024/03/11 13:54:50;;;;;;;2.97;2.33;;;;;;;;;;5033616;28;20033;-67
2024/03/11 13:57:16;;;;;;;2.65;2.28;;;;;;;;;;5031983;28;20037;-67
2024/03/11 13:59:42;;;;;;;3.33;2.13;;;;;;;;;;5032770;28;20049;-64
2024/03/11 14:02:09;;;;;;;4.13;2.50;;;;;;;;;;5031499;28;20091;-65
2024/03/11 14:04:37;;;;;;;3.60;2.20;;;;;;;;;;5031922;28;20124;-66
2024/03/11 14:07:05;;;;;;;5.18;2.72;;;;;;;;;;5015330;28;20033;-64
2024/03/11 14:09:31;;;;;;;3.72;2.67;;;;;;;;;;5033141;28;20041;-62
2024/03/11 14:11:56;;;;;;;4.20;2.05;;;;;;;;;;5032198;28;20037;-64
2024/03/11 14:14:23;;;;;;;4.82;2.20;;;;;;;;;;5031667;28;20620;-66
2024/03/11 14:16:49;;;;;;;3.75;2.28;;;;;;;;;;5030202;28;20507;-67
2024/03/11 14:19:17;;;;;;;3.50;2.15;;;;;;;;;;5032527;28;20052;-66
2024/03/11 14:21:43;;;;;;;5.28;2.33;;;;;;;;;;5031495;28;20041;-65
2024/03/11 14:24:10;;;;;;;4.40;2.70;;;;;;;;;;5032184;28;20568;-64
2024/03/11 14:26:36;;;;;;;3.00;2.33;;;;;;;;;;5032566;28;20411;-69
2024/03/11 14:29:05;;;;;;;3.13;2.20;;;;;;;;;;5032404;28;20384;-71
2024/03/11 14:31:33;;;;;;;5.07;2.53;;;;;;;;;;5013943;28;20148;-70
2024/03/11 14:34:02;;;;;;;4.03;2.42;;;;;;;;;;5029783;28;20037;-69
2024/03/11 14:36:31;;;;;;;4.72;2.42;;;;;;;;;;5030225;28;20057;-68
2024/03/11 14:38:57;;;;;;;4.40;2.80;;;;;;;;;;5031222;28;20049;-70
2024/03/11 14:41:24;;;;;;;3.63;2.38;;;;;;;;;;5028622;28;20415;-70
2024/03/11 14:43:52;;;;;;;3.95;2.45;;;;;;;;;;5030578;28;20037;-66
2024/03/11 14:46:20;;;;;;;3.92;2.30;;;;;;;;;;5013589;28;20111;-65
2024/03/11 14:48:47;;;;;;;3.28;2.47;;;;;;;;;;5030946;28;20154;-70
2024/03/11 14:51:16;;;;;;;4.30;2.80;;;;;;;;;;5030547;28;20545;-73